Time;durP1;ratioP1;P1;durP2;ratioP2;P2;SDS_P1;SDS_P2;PMS_P1;PMS_P2;Temp;Humidity;BMP_temperature;BMP_pressure;BME280_temperature;BME280_humidity;BME280_pressure;Samples;Min_cycle;Max_cycle;Signal;HPM_P1;HPM_P2
2021/03/13 00:00:53;;;;;;;3.20;0.55;;;20.70;35.80;;;;;;5092419;28;20035;-75
2021/03/13 00:03:19;;;;;;;3.75;0.82;;;20.70;35.90;;;;;;5093088;28;20063;-75
2021/03/13 00:05:45;;;;;;;1.48;0.65;;;20.70;36.50;;;;;;5092139;28;20054;-75
2021/03/13 00:08:11;;;;;;;3.13;0.80;;;20.70;35.80;;;;;;5091132;28;20035;-75
2021/03/13 00:10:37;;;;;;;3.90;0.73;;;20.70;35.90;;;;;;5074054;28;20040;-75
2021/03/13 00:13:03;;;;;;;6.95;0.70;;;20.70;36.00;;;;;;5091481;28;20032;-75
2021/03/13 00:15:29;;;;;;;4.25;1.08;;;20.60;36.00;;;;;;5090769;28;20407;-83
2021/03/13 00:17:56;;;;;;;5.72;1.10;;;20.60;36.00;;;;;;5091157;28;20036;-82
2021/03/13 00:20:23;;;;;;;2.63;0.90;;;20.60;36.00;;;;;;5090728;28;20063;-81
2021/03/13 00:22:49;;;;;;;4.47;1.15;;;20.60;36.00;;;;;;5074654;28;20034;-81
2021/03/13 00:25:15;;;;;;;1.05;0.55;;;20.60;36.00;;;;;;5090955;28;20028;-80
2021/03/13 00:27:46;;;;;;;2.85;0.85;;;20.60;36.20;;;;;;5091631;28;20376;-80
2021/03/13 00:30:16;;;;;;;4.00;0.80;;;20.50;36.80;;;;;;5090764;28;20024;-84
2021/03/13 00:32:43;;;;;;;2.80;0.80;;;20.50;36.20;;;;;;5093798;28;20069;-93
2021/03/13 00:35:09;;;;;;;6.72;1.00;;;20.50;36.20;;;;;;5092104;28;20107;-83
2021/03/13 00:37:34;;;;;;;6.05;1.10;;;20.50;36.90;;;;;;5092462;28;20060;-83
2021/03/13 00:40:00;;;;;;;0.30;0.25;;;20.40;36.30;;;;;;5092057;28;20060;-83
2021/03/13 00:42:26;;;;;;;5.40;0.93;;;20.40;36.20;;;;;;5091371;28;20032;-82
2021/03/13 00:44:51;;;;;;;5.65;0.80;;;20.50;36.40;;;;;;5091227;28;20453;-80
2021/03/13 00:47:17;;;;;;;5.18;1.15;;;20.40;36.30;;;;;;5091365;28;20109;-80
2021/03/13 00:49:42;;;;;;;2.00;0.73;;;20.50;36.50;;;;;;5092358;28;20032;-80
2021/03/13 00:52:08;;;;;;;2.92;0.90;;;20.40;36.40;;;;;;5092765;28;20024;-80
2021/03/13 00:54:33;;;;;;;2.88;0.82;;;20.40;36.50;;;;;;5074149;28;20092;-80
2021/03/13 00:56:59;;;;;;;1.00;0.15;;;20.40;36.60;;;;;;5090743;28;20036;-80
2021/03/13 00:59:24;;;;;;;6.43;1.17;;;20.40;36.50;;;;;;5091131;28;20071;-80
2021/03/13 01:01:53;;;;;;;4.43;1.02;;;20.40;36.50;;;;;;5091048;28;20021;-74
2021/03/13 01:04:19;;;;;;;3.42;0.77;;;20.50;36.60;;;;;;5091941;28;20085;-74
2021/03/13 01:06:44;;;;;;;4.00;0.88;;;20.40;36.50;;;;;;5092207;28;20020;-75
2021/03/13 01:09:10;;;;;;;5.15;1.13;;;20.40;36.60;;;;;;5090017;28;20820;-75
2021/03/13 01:11:35;;;;;;;3.13;0.80;;;20.40;36.40;;;;;;5092509;28;20103;-75
2021/03/13 01:14:01;;;;;;;9.15;1.00;;;20.40;36.50;;;;;;5090506;28;20070;-73
2021/03/13 01:16:26;;;;;;;0.95;0.47;;;20.40;36.50;;;;;;5092166;28;20024;-73
2021/03/13 01:18:52;;;;;;;0.75;0.35;;;20.50;36.50;;;;;;5091891;28;20106;-73
2021/03/13 01:21:18;;;;;;;3.30;0.60;;;20.50;36.60;;;;;;5091937;28;20377;-74
2021/03/13 01:23:43;;;;;;;5.38;0.77;;;20.50;36.50;;;;;;5091846;28;20457;-74
2021/03/13 01:26:09;;;;;;;5.38;0.75;;;20.50;36.50;;;;;;5091835;28;20028;-74
2021/03/13 01:28:35;;;;;;;4.28;0.88;;;20.50;36.50;;;;;;5090556;28;20103;-74
2021/03/13 01:31:00;;;;;;;1.92;0.60;;;20.50;36.50;;;;;;5091874;28;20039;-87
2021/03/13 01:33:26;;;;;;;4.45;1.33;;;20.50;36.50;;;;;;5092566;28;20086;-87
2021/03/13 01:35:51;;;;;;;2.42;0.77;;;20.50;36.60;;;;;;5074346;28;20056;-88
2021/03/13 01:38:17;;;;;;;3.30;0.50;;;20.50;36.50;;;;;;5091885;28;20028;-87
2021/03/13 01:40:42;;;;;;;4.97;0.52;;;20.50;36.60;;;;;;5090627;28;20396;-87
2021/03/13 01:43:08;;;;;;;2.95;0.50;;;20.50;36.60;;;;;;5092260;28;20056;-87
2021/03/13 01:45:34;;;;;;;4.75;0.80;;;20.40;36.60;;;;;;5090020;28;20043;-87
2021/03/13 01:47:59;;;;;;;2.53;0.70;;;20.40;36.70;;;;;;5073478;28;20085;-87
2021/03/13 01:50:53;;;;;;;3.60;0.82;;;20.40;36.70;;;;;;5090634;28;20012;-87
2021/03/13 01:53:18;;;;;;;2.72;0.90;;;20.40;36.70;;;;;;5094021;28;20059;-88
2021/03/13 01:55:44;;;;;;;2.47;0.45;;;20.40;36.70;;;;;;5094314;28;20031;-89
2021/03/13 01:58:09;;;;;;;1.95;0.55;;;20.40;36.80;;;;;;5060650;28;20127;-89
2021/03/13 02:00:35;;;;;;;1.98;0.68;;;20.40;36.80;;;;;;5076863;28;20523;-89
2021/03/13 02:03:00;;;;;;;3.53;0.50;;;20.40;36.80;;;;;;5077356;28;20369;-89
2021/03/13 02:05:27;;;;;;;2.33;0.50;;;20.40;36.90;;;;;;5095401;28;20040;-90
2021/03/13 02:08:06;;;;;;;3.35;1.02;;;20.40;36.80;;;;;;5094508;28;20031;-90
2021/03/13 02:10:34;;;;;;;3.53;0.90;;;20.40;36.80;;;;;;5077245;28;20495;-89
2021/03/13 02:13:25;;;;;;;4.70;0.88;;;20.40;36.90;;;;;;5093039;28;20016;-89
2021/03/13 02:15:58;;;;;;;2.35;0.63;;;20.40;36.90;;;;;;5093904;28;20035;-89
2021/03/13 02:18:57;;;;;;;4.00;0.95;;;20.40;36.90;;;;;;5094310;28;20452;-89
2021/03/13 02:21:38;;;;;;;1.67;0.82;;;20.40;36.90;;;;;;5074200;28;20504;-88
2021/03/13 02:24:22;;;;;;;4.43;0.45;;;20.30;36.90;;;;;;5093972;28;20106;-88
2021/03/13 02:27:12;;;;;;;2.20;0.85;;;20.40;37.10;;;;;;5094478;28;20046;-83
2021/03/13 02:30:01;;;;;;;0.20;0.17;;;20.30;37.00;;;;;;5069343;28;20020;-83
2021/03/13 02:33:01;;;;;;;4.25;1.20;;;20.30;37.10;;;;;;5095211;28;20097;-83
2021/03/13 02:35:32;;;;;;;3.47;1.20;;;20.40;37.20;;;;;;5094119;28;20089;-84
2021/03/13 02:38:02;;;;;;;7.97;0.88;;;20.30;37.10;;;;;;5093040;28;20103;-84
2021/03/13 02:40:28;;;;;;;0.15;0.15;;;20.40;37.20;;;;;;5094313;28;20020;-91
2021/03/13 02:42:55;;;;;;;6.05;1.17;;;20.30;37.10;;;;;;5077186;28;20075;-92
2021/03/13 02:45:22;;;;;;;2.13;0.63;;;20.30;37.10;;;;;;5060337;28;20051;-91
2021/03/13 02:47:48;;;;;;;3.83;1.02;;;20.30;37.00;;;;;;5077415;28;20032;-91
2021/03/13 02:50:14;;;;;;;3.53;1.13;;;20.30;37.10;;;;;;5076861;28;20024;-86
2021/03/13 02:52:40;;;;;;;4.35;1.20;;;20.30;37.10;;;;;;5094128;28;20024;-84
2021/03/13 02:55:06;;;;;;;3.20;0.35;;;20.30;37.80;;;;;;5093210;28;20028;-84
2021/03/13 02:57:34;;;;;;;1.73;0.68;;;20.30;37.10;;;;;;5076642;28;20028;-84
2021/03/13 03:00:00;;;;;;;3.20;0.88;;;20.30;37.20;;;;;;5075857;28;20020;-80
2021/03/13 03:02:26;;;;;;;1.20;0.55;;;20.30;37.20;;;;;;5092562;28;20044;-85
2021/03/13 03:04:51;;;;;;;1.65;0.52;;;20.30;37.20;;;;;;5076203;28;20051;-88
2021/03/13 03:07:17;;;;;;;2.60;0.75;;;20.30;37.30;;;;;;5058625;28;20032;-84
2021/03/13 03:09:43;;;;;;;2.15;0.65;;;20.30;37.30;;;;;;5092849;28;20032;-86
2021/03/13 03:12:09;;;;;;;0.20;0.20;;;20.30;37.30;;;;;;5093255;28;20532;-89
2021/03/13 03:14:34;;;;;;;4.47;0.80;;;20.30;37.30;;;;;;5075912;28;20114;-89
2021/03/13 03:17:02;;;;;;;1.58;0.95;;;20.30;37.30;;;;;;5093299;28;20032;-85
2021/03/13 03:19:28;;;;;;;2.40;0.90;;;20.30;37.50;;;;;;5093095;28;20107;-84
2021/03/13 03:21:53;;;;;;;2.88;0.60;;;20.20;37.50;;;;;;5093986;28;20146;-82
2021/03/13 03:24:19;;;;;;;0.43;0.20;;;20.20;37.50;;;;;;5075451;28;20028;-82
2021/03/13 03:26:46;;;;;;;1.85;0.32;;;20.20;37.50;;;;;;5098789;28;20035;-74
2021/03/13 03:29:12;;;;;;;2.40;0.55;;;20.10;37.60;;;;;;5093843;28;20035;-74
2021/03/13 03:31:37;;;;;;;4.97;0.50;;;20.10;37.60;;;;;;5092085;28;20110;-73
2021/03/13 03:34:04;;;;;;;2.40;0.40;;;20.10;37.70;;;;;;5093500;28;20097;-74
2021/03/13 03:36:30;;;;;;;1.10;0.43;;;20.10;37.70;;;;;;5091240;28;20048;-73
2021/03/13 03:38:56;;;;;;;2.03;0.38;;;20.10;37.70;;;;;;5091573;28;20016;-74
2021/03/13 03:41:22;;;;;;;1.73;0.32;;;20.10;37.80;;;;;;5092870;28;20039;-74
2021/03/13 03:43:53;;;;;;;0.08;0.08;;;20.10;37.70;;;;;;5093073;28;20050;-73
2021/03/13 03:46:18;;;;;;;3.00;0.43;;;20.10;37.80;;;;;;5091546;28;20415;-73
2021/03/13 03:48:44;;;;;;;1.88;0.32;;;20.00;37.80;;;;;;5091106;28;20043;-74
2021/03/13 03:51:12;;;;;;;0.57;0.22;;;20.00;37.90;;;;;;5097130;28;20495;-73
2021/03/13 03:53:42;;;;;;;1.10;0.40;;;20.00;37.90;;;;;;5075613;28;20035;-73
2021/03/13 03:56:08;;;;;;;1.02;0.22;;;20.00;37.90;;;;;;5091610;28;20032;-73
2021/03/13 03:58:42;;;;;;;1.60;0.40;;;20.00;38.00;;;;;;5091669;28;20550;-73
2021/03/13 04:01:07;;;;;;;1.00;0.40;;;19.90;37.90;;;;;;5091530;28;20082;-73
2021/03/13 04:03:33;;;;;;;1.83;0.32;;;19.90;37.90;;;;;;5075156;28;20531;-73
2021/03/13 04:05:59;;;;;;;0.77;0.20;;;19.90;38.00;;;;;;5074283;28;20069;-75
2021/03/13 04:08:25;;;;;;;2.22;0.22;;;19.90;37.90;;;;;;5091687;28;20040;-74
2021/03/13 04:10:52;;;;;;;1.88;0.30;;;19.90;38.00;;;;;;5074724;28;20556;-75
2021/03/13 04:13:20;;;;;;;1.13;0.35;;;19.90;37.90;;;;;;5091449;28;20024;-73
2021/03/13 04:15:46;;;;;;;0.30;0.10;;;20.00;38.00;;;;;;5072778;28;20035;-73
2021/03/13 04:18:13;;;;;;;0.10;0.05;;;19.90;38.00;;;;;;5092812;28;20500;-73
2021/03/13 04:20:50;;;;;;;3.20;0.65;;;20.00;38.00;;;;;;5079279;28;20042;-74
2021/03/13 04:23:17;;;;;;;3.35;0.63;;;20.00;38.00;;;;;;5075356;28;20075;-73
2021/03/13 04:25:43;;;;;;;1.30;0.40;;;20.00;38.10;;;;;;5091146;28;20016;-73
2021/03/13 04:28:08;;;;;;;3.03;0.63;;;20.00;38.20;;;;;;5057412;28;20023;-73
2021/03/13 04:30:34;;;;;;;1.48;0.25;;;20.00;38.10;;;;;;5057244;28;20546;-73
2021/03/13 04:33:03;;;;;;;2.28;0.50;;;20.00;38.10;;;;;;5091076;28;20021;-73
2021/03/13 04:35:28;;;;;;;1.45;0.25;;;20.00;38.10;;;;;;5092485;28;20032;-73
2021/03/13 04:38:03;;;;;;;1.25;0.38;;;19.90;38.10;;;;;;5090989;28;20028;-73
2021/03/13 04:40:28;;;;;;;0.63;0.22;;;19.90;38.20;;;;;;5090474;28;20423;-73
2021/03/13 04:42:54;;;;;;;1.25;0.50;;;19.90;38.20;;;;;;5091277;28;20028;-74
2021/03/13 04:45:20;;;;;;;0.63;0.43;;;19.90;38.30;;;;;;5091387;28;20032;-73
2021/03/13 04:47:47;;;;;;;2.25;0.52;;;19.90;38.30;;;;;;5074470;28;20067;-72
2021/03/13 04:50:14;;;;;;;0.45;0.13;;;19.90;38.30;;;;;;5073445;28;20447;-74
2021/03/13 04:52:39;;;;;;;2.83;0.57;;;19.90;38.30;;;;;;5072476;28;20136;-73
2021/03/13 04:55:06;;;;;;;1.02;0.30;;;19.90;38.30;;;;;;5090679;28;20567;-73
2021/03/13 04:57:31;;;;;;;4.43;0.88;;;19.90;38.40;;;;;;5056851;28;20040;-74
2021/03/13 04:59:57;;;;;;;1.80;0.50;;;19.80;39.10;;;;;;5088936;28;20048;-73
2021/03/13 05:02:22;;;;;;;1.15;0.25;;;19.80;38.40;;;;;;5090951;28;20028;-73
2021/03/13 05:04:48;;;;;;;1.85;0.50;;;19.80;38.40;;;;;;5091785;28;20047;-73
2021/03/13 05:07:14;;;;;;;2.75;0.80;;;19.80;38.50;;;;;;5089749;28;20039;-74
2021/03/13 05:09:40;;;;;;;2.08;0.52;;;19.80;38.50;;;;;;5089802;28;20025;-75
2021/03/13 05:12:06;;;;;;;1.23;0.30;;;19.80;38.60;;;;;;5089562;28;20035;-74
2021/03/13 05:14:31;;;;;;;1.33;0.32;;;19.80;38.70;;;;;;5091322;28;20072;-74
2021/03/13 05:16:57;;;;;;;2.05;0.60;;;19.70;38.70;;;;;;5090687;28;20040;-73
2021/03/13 05:19:22;;;;;;;1.05;0.40;;;19.70;38.80;;;;;;5091386;28;20066;-73
2021/03/13 05:21:48;;;;;;;1.17;0.30;;;19.70;39.60;;;;;;5090562;28;20028;-73
2021/03/13 05:24:14;;;;;;;2.03;0.47;;;19.70;39.00;;;;;;5088905;28;20099;-73
2021/03/13 05:26:39;;;;;;;4.00;0.20;;;19.70;39.00;;;;;;5073938;28;20081;-73
2021/03/13 05:29:05;;;;;;;1.10;0.40;;;19.70;39.10;;;;;;5094511;28;20020;-74
2021/03/13 05:31:31;;;;;;;0.65;0.38;;;19.70;39.20;;;;;;5095483;28;20034;-74
2021/03/13 05:33:56;;;;;;;1.35;0.68;;;19.60;39.10;;;;;;5076350;28;20044;-74
2021/03/13 05:36:22;;;;;;;2.72;0.55;;;19.60;39.10;;;;;;5076920;28;20426;-75
2021/03/13 05:38:47;;;;;;;1.77;0.20;;;19.60;39.10;;;;;;5076130;28;20074;-73
2021/03/13 05:41:14;;;;;;;1.98;0.32;;;19.60;39.10;;;;;;5093104;28;20055;-73
2021/03/13 05:43:40;;;;;;;0.60;0.40;;;19.60;39.20;;;;;;5094208;28;20048;-74
2021/03/13 05:46:06;;;;;;;0.43;0.10;;;19.60;39.20;;;;;;5094242;28;20047;-73
2021/03/13 05:48:32;;;;;;;1.20;0.47;;;19.60;39.20;;;;;;5095160;28;20020;-73
2021/03/13 05:51:00;;;;;;;0.30;0.20;;;19.60;39.40;;;;;;5092857;28;20039;-73
2021/03/13 05:53:25;;;;;;;3.83;0.25;;;19.60;39.40;;;;;;5093283;28;20028;-73
2021/03/13 05:55:53;;;;;;;2.33;0.52;;;19.50;39.50;;;;;;5094334;28;20475;-74
2021/03/13 05:58:19;;;;;;;6.50;0.60;;;19.60;39.60;;;;;;5093337;28;20024;-74
2021/03/13 06:00:44;;;;;;;1.10;0.30;;;19.50;39.60;;;;;;5093289;28;20024;-73
2021/03/13 06:03:10;;;;;;;0.30;0.20;;;19.50;39.40;;;;;;5096114;28;20028;-82
2021/03/13 06:05:36;;;;;;;2.28;0.30;;;19.40;39.10;;;;;;5094703;28;20028;-81
2021/03/13 06:08:01;;;;;;;0.57;0.15;;;19.40;38.80;;;;;;5094962;28;20024;-85
2021/03/13 06:10:27;;;;;;;0.22;0.20;;;19.40;38.80;;;;;;5093653;28;20036;-83
2021/03/13 06:12:57;;;;;;;2.85;0.20;;;19.40;38.70;;;;;;5092262;28;20515;-74
2021/03/13 06:15:23;;;;;;;2.10;0.30;;;19.30;38.50;;;;;;5093431;28;20020;-74
2021/03/13 06:18:01;;;;;;;0.90;0.10;;;19.30;38.40;;;;;;5076182;28;20111;-74
2021/03/13 06:20:38;;;;;;;0.73;0.20;;;19.30;38.30;;;;;;5093370;28;20028;-74
2021/03/13 06:23:14;;;;;;;1.10;0.20;;;19.30;38.30;;;;;;5094062;28;20099;-74
2021/03/13 06:25:40;;;;;;;0.93;0.17;;;19.30;38.10;;;;;;5093928;28;20023;-73
2021/03/13 06:28:29;;;;;;;0.10;0.10;;;19.20;38.00;;;;;;5094576;28;20087;-82
2021/03/13 06:31:03;;;;;;;3.55;0.20;;;19.20;38.00;;;;;;5094894;28;20020;-86
2021/03/13 06:33:34;;;;;;;0.32;0.15;;;19.20;38.20;;;;;;5076828;28;20024;-74
2021/03/13 06:36:03;;;;;;;3.00;0.10;;;19.20;38.00;;;;;;5093712;28;20123;-74
2021/03/13 06:38:30;;;;;;;0.68;0.17;;;19.20;38.00;;;;;;5075634;28;20487;-73
2021/03/13 06:41:10;;;;;;;0.77;0.20;;;19.30;38.10;;;;;;5093777;28;20035;-73
2021/03/13 06:43:35;;;;;;;0.88;0.32;;;19.30;37.80;;;;;;5092713;28;20042;-73
2021/03/13 06:46:12;;;;;;;2.63;0.05;;;19.40;37.60;;;;;;5094618;28;20024;-73
2021/03/13 06:48:43;;;;;;;0.47;0.28;;;19.50;37.70;;;;;;5090114;28;20039;-73
2021/03/13 06:51:18;;;;;;;0.60;0.00;;;19.60;37.60;;;;;;5092910;28;20089;-73
2021/03/13 06:53:44;;;;;;;1.90;0.20;;;19.60;37.50;;;;;;5091904;28;20036;-73
2021/03/13 06:56:10;;;;;;;0.20;0.15;;;19.70;37.60;;;;;;5093599;28;20020;-74
2021/03/13 06:58:36;;;;;;;3.65;0.40;;;19.80;37.10;;;;;;5075508;28;20032;-73
2021/03/13 07:01:05;;;;;;;0.32;0.20;;;19.80;36.90;;;;;;5093827;28;20388;-72
2021/03/13 07:03:31;;;;;;;0.20;0.13;;;19.80;36.80;;;;;;5092881;28;20032;-84
2021/03/13 07:05:57;;;;;;;0.85;0.13;;;19.90;36.90;;;;;;5094196;28;20403;-83
2021/03/13 07:08:23;;;;;;;0.20;0.10;;;20.00;36.80;;;;;;5075602;28;20043;-83
2021/03/13 07:10:50;;;;;;;0.10;0.10;;;20.10;36.70;;;;;;5093629;28;20028;-82
2021/03/13 07:13:37;;;;;;;0.20;0.10;;;20.10;36.70;;;;;;5093509;28;20024;-82
2021/03/13 07:16:25;;;;;;;1.88;0.30;;;20.20;36.60;;;;;;5090854;28;20411;-85
2021/03/13 07:18:52;;;;;;;1.30;0.20;;;20.30;36.30;;;;;;5093962;28;20433;-83
2021/03/13 07:21:19;;;;;;;0.32;0.10;;;20.40;36.40;;;;;;5071161;28;20094;-86
2021/03/13 07:24:10;;;;;;;0.17;0.10;;;20.40;36.40;;;;;;5074804;28;20499;-73
2021/03/13 07:26:38;;;;;;;1.60;0.20;;;20.40;36.10;;;;;;5092811;28;20012;-73
2021/03/13 07:29:06;;;;;;;0.85;0.10;;;20.40;36.10;;;;;;5090320;28;20103;-73
2021/03/13 07:31:36;;;;;;;0.45;0.08;;;20.40;35.80;;;;;;5090769;28;20024;-73
2021/03/13 07:34:04;;;;;;;0.52;0.10;;;20.40;36.00;;;;;;5090731;28;20028;-74
2021/03/13 07:39:52;;;;;;;1.90;0.32;;;20.40;36.00;;;;;;5093754;28;20066;-74
2021/03/13 07:42:21;;;;;;;0.50;0.10;;;20.50;36.20;;;;;;5091717;28;20062;-74
2021/03/13 07:44:47;;;;;;;0.93;0.22;;;20.50;36.10;;;;;;5092953;28;20028;-74
2021/03/13 07:47:17;;;;;;;2.55;0.35;;;20.50;36.10;;;;;;5092312;28;20544;-73
2021/03/13 07:49:45;;;;;;;0.90;0.20;;;20.50;35.80;;;;;;5092410;28;20024;-74
2021/03/13 07:52:12;;;;;;;0.47;0.30;;;20.50;35.70;;;;;;5090001;28;20125;-75
2021/03/13 07:54:45;;;;;;;0.08;0.08;;;20.50;35.80;;;;;;5092771;28;20050;-74
2021/03/13 07:57:11;;;;;;;0.52;0.17;;;20.50;35.70;;;;;;5074717;28;20086;-74
2021/03/13 07:59:50;;;;;;;4.45;0.93;;;20.60;35.70;;;;;;5072686;28;20036;-74
2021/03/13 08:02:30;;;;;;;0.70;0.20;;;20.70;35.60;;;;;;5091854;28;20023;-74
2021/03/13 08:05:08;;;;;;;0.32;0.30;;;20.80;35.70;;;;;;5092428;28;20058;-74
2021/03/13 08:07:55;;;;;;;1.00;0.20;;;20.80;35.70;;;;;;5092390;28;20073;-74
2021/03/13 08:10:44;;;;;;;3.25;0.52;;;20.80;35.60;;;;;;5084705;28;20513;-74
2021/03/13 08:13:11;;;;;;;4.03;0.45;;;20.80;35.20;;;;;;5101949;28;20027;-73
2021/03/13 08:15:40;;;;;;;1.52;0.25;;;20.80;35.10;;;;;;5091717;28;20043;-75
2021/03/13 08:18:07;;;;;;;1.60;0.17;;;20.80;35.30;;;;;;5092431;28;20074;-74
2021/03/13 08:20:33;;;;;;;7.43;0.30;;;20.80;34.90;;;;;;5091579;28;20028;-74
2021/03/13 08:23:11;;;;;;;0.30;0.20;;;20.70;35.10;;;;;;5092325;28;20519;-74
2021/03/13 08:26:04;;;;;;;1.08;0.20;;;20.70;35.10;;;;;;5090900;28;20534;-74
2021/03/13 08:28:48;;;;;;;0.85;0.55;;;20.70;35.20;;;;;;5089454;28;20051;-74
2021/03/13 08:31:22;;;;;;;4.00;0.50;;;20.70;35.10;;;;;;5091999;28;20036;-74
2021/03/13 08:34:07;;;;;;;2.20;0.40;;;20.70;35.30;;;;;;5091759;28;20497;-74
2021/03/13 08:36:47;;;;;;;0.57;0.35;;;20.80;35.20;;;;;;5090614;28;20078;-74
2021/03/13 08:39:14;;;;;;;3.75;0.55;;;20.70;35.00;;;;;;5092020;28;20028;-74
2021/03/13 08:41:45;;;;;;;4.80;0.70;;;20.60;35.10;;;;;;5092162;28;20396;-74
2021/03/13 08:44:11;;;;;;;0.93;0.28;;;20.60;35.20;;;;;;5092545;28;20073;-74
2021/03/13 08:46:46;;;;;;;0.43;0.20;;;20.60;35.30;;;;;;5092753;28;20051;-74
2021/03/13 08:49:36;;;;;;;2.25;0.30;;;20.60;35.20;;;;;;5091263;28;20016;-74
2021/03/13 08:52:04;;;;;;;1.23;0.45;;;20.60;35.40;;;;;;5030348;28;20041;-81
2021/03/13 08:54:45;;;;;;;0.32;0.22;;;20.60;35.40;;;;;;5031912;28;20117;-81
2021/03/13 08:57:11;;;;;;;1.60;0.47;;;20.60;35.50;;;;;;5026165;28;20084;-78
2021/03/13 08:59:38;;;;;;;4.55;1.15;;;20.70;35.50;;;;;;5029768;28;20034;-78
2021/03/13 09:02:12;;;;;;;2.63;0.40;;;20.70;35.30;;;;;;5009418;28;20493;-81
2021/03/13 09:04:38;;;;;;;1.92;0.60;;;20.70;35.30;;;;;;5016204;28;20030;-84
2021/03/13 09:07:08;;;;;;;4.50;0.90;;;20.70;35.20;;;;;;5018358;28;20083;-82
2021/03/13 09:09:35;;;;;;;6.82;0.88;;;20.80;35.20;;;;;;5033398;28;20037;-83
2021/03/13 09:12:08;;;;;;;3.05;0.50;;;20.70;35.00;;;;;;5003903;28;20029;-84
2021/03/13 09:14:40;;;;;;;2.72;0.30;;;20.70;34.80;;;;;;5018002;28;20045;-79
2021/03/13 09:17:12;;;;;;;0.15;0.15;;;20.80;34.80;;;;;;5020431;28;20041;-73
2021/03/13 09:22:59;;;;;;;2.75;0.50;;;20.90;35.00;;;;;;5032227;28;20524;-74
2021/03/13 09:25:25;;;;;;;1.55;0.45;;;21.00;34.70;;;;;;5016043;28;20038;-74
2021/03/13 09:27:51;;;;;;;1.60;0.50;;;21.00;34.70;;;;;;5004335;28;20048;-75
2021/03/13 09:30:21;;;;;;;8.18;0.70;;;21.00;34.70;;;;;;5060231;28;20103;-75
2021/03/13 09:32:48;;;;;;;2.20;0.55;;;21.10;34.50;;;;;;5095656;28;20100;-74
2021/03/13 09:35:14;;;;;;;2.90;0.82;;;21.10;34.20;;;;;;5077210;28;20028;-74
2021/03/13 09:37:41;;;;;;;4.50;0.85;;;21.10;34.00;;;;;;5092122;28;20055;-76
2021/03/13 09:40:13;;;;;;;0.57;0.30;;;21.00;34.10;;;;;;5076312;28;20048;-75
2021/03/13 09:42:43;;;;;;;1.25;0.52;;;21.00;33.80;;;;;;5092458;28;20114;-75
2021/03/13 09:45:10;;;;;;;2.30;0.50;;;21.00;34.00;;;;;;5093076;28;20040;-75
2021/03/13 09:47:59;;;;;;;2.13;0.73;;;21.00;34.00;;;;;;5076392;28;20570;-75
2021/03/13 09:51:08;;;;;;;0.93;0.32;;;21.00;34.10;;;;;;5101129;28;20492;-76
2021/03/13 09:53:34;;;;;;;9.50;0.40;;;21.00;34.30;;;;;;5109970;28;20036;-75
2021/03/13 09:55:59;;;;;;;0.63;0.40;;;21.10;34.50;;;;;;5076558;28;20024;-76
2021/03/13 09:58:25;;;;;;;2.22;0.65;;;21.10;34.60;;;;;;5094748;28;20035;-77
2021/03/13 10:00:51;;;;;;;4.65;0.98;;;21.10;34.40;;;;;;5092806;28;20046;-78
2021/03/13 10:03:17;;;;;;;12.27;1.40;;;21.20;34.50;;;;;;5060930;28;20419;-80
2021/03/13 10:05:43;;;;;;;1.30;0.70;;;21.10;35.10;;;;;;5076784;28;20028;-75
2021/03/13 10:08:14;;;;;;;5.60;0.80;;;21.10;34.50;;;;;;5076063;28;20506;-77
2021/03/13 10:10:49;;;;;;;2.10;0.50;;;21.10;34.50;;;;;;5094995;28;20057;-77
2021/03/13 10:13:16;;;;;;;6.00;0.90;;;21.20;34.50;;;;;;5092225;28;20055;-76
2021/03/13 10:15:42;;;;;;;1.10;0.47;;;21.20;34.30;;;;;;5095886;28;20028;-77
2021/03/13 10:18:07;;;;;;;2.35;0.80;;;21.20;34.40;;;;;;5076809;28;20036;-77
2021/03/13 10:20:34;;;;;;;1.33;0.68;;;21.20;34.20;;;;;;5095168;28;20052;-76
2021/03/13 10:23:04;;;;;;;4.88;0.82;;;21.30;34.50;;;;;;5094792;28;20020;-78
2021/03/13 10:25:30;;;;;;;2.47;0.80;;;21.30;34.30;;;;;;5092931;28;20119;-79
2021/03/13 10:28:11;;;;;;;6.50;0.98;;;21.40;34.40;;;;;;5093481;28;20128;-77
2021/03/13 10:30:38;;;;;;;2.17;0.98;;;21.40;33.90;;;;;;5077411;28;20102;-77
2021/03/13 10:33:04;;;;;;;3.58;1.10;;;21.40;34.00;;;;;;5091177;28;20036;-80
2021/03/13 10:35:31;;;;;;;2.47;0.30;;;21.50;34.20;;;;;;5090229;28;20594;-80
2021/03/13 10:37:58;;;;;;;1.05;0.52;;;21.50;33.90;;;;;;5090377;28;20028;-79
2021/03/13 10:40:34;;;;;;;2.72;0.63;;;21.60;34.10;;;;;;5088879;28;20050;-79
2021/03/13 10:43:15;;;;;;;2.78;0.65;;;21.60;34.20;;;;;;5089528;28;20070;-79
2021/03/13 10:45:42;;;;;;;1.20;0.50;;;21.70;34.30;;;;;;5096645;28;20437;-79
2021/03/13 10:48:09;;;;;;;3.08;0.77;;;21.70;34.30;;;;;;5076272;28;20020;-80
2021/03/13 10:50:35;;;;;;;0.77;0.43;;;21.80;34.30;;;;;;5074802;28;20024;-80
2021/03/13 10:53:47;;;;;;;0.55;0.50;;;21.80;34.30;;;;;;5092603;28;20107;-80
2021/03/13 10:56:14;;;;;;;2.65;0.88;;;21.90;34.20;;;;;;5090081;28;20532;-79
2021/03/13 10:58:53;;;;;;;3.85;0.57;;;22.10;34.10;;;;;;5091850;28;20047;-79
2021/03/13 11:01:22;;;;;;;3.88;0.70;;;22.10;33.90;;;;;;5089984;28;20028;-80
2021/03/13 11:03:49;;;;;;;2.53;0.73;;;22.20;34.00;;;;;;5092667;28;20028;-79
2021/03/13 11:06:26;;;;;;;2.75;0.57;;;22.20;33.70;;;;;;5092930;28;20031;-80
2021/03/13 11:08:53;;;;;;;7.55;1.30;;;22.20;33.60;;;;;;5092127;28;20016;-80
2021/03/13 11:11:19;;;;;;;7.65;1.20;;;22.20;33.60;;;;;;5092874;28;20065;-80
2021/03/13 11:13:45;;;;;;;4.38;1.15;;;22.10;33.30;;;;;;5093183;28;20050;-81
2021/03/13 11:16:10;;;;;;;3.92;1.20;;;22.00;33.00;;;;;;5093848;28;20067;-79
2021/03/13 11:18:36;;;;;;;4.63;1.38;;;21.90;33.20;;;;;;5091493;28;20036;-80
2021/03/13 11:21:02;;;;;;;2.88;0.80;;;21.80;33.00;;;;;;5091097;28;20032;-81
2021/03/13 11:23:27;;;;;;;5.85;1.58;;;21.80;33.10;;;;;;5074138;28;20044;-79
2021/03/13 11:25:53;;;;;;;5.63;1.40;;;21.80;33.00;;;;;;5093318;28;20024;-80
2021/03/13 11:28:18;;;;;;;3.47;0.85;;;21.80;33.30;;;;;;5091609;28;20372;-79
2021/03/13 11:30:44;;;;;;;5.15;0.90;;;21.90;33.20;;;;;;5074848;28;20047;-79
2021/03/13 11:33:10;;;;;;;2.50;0.50;;;22.00;33.30;;;;;;5089400;28;20387;-79
2021/03/13 11:35:36;;;;;;;3.72;0.68;;;22.00;33.30;;;;;;5073431;28;20079;-74
2021/03/13 11:38:02;;;;;;;1.98;0.75;;;22.10;33.10;;;;;;5091140;28;20026;-74
2021/03/13 11:40:27;;;;;;;5.03;0.68;;;22.20;32.80;;;;;;5094816;28;20028;-74
2021/03/13 11:43:27;;;;;;;1.23;0.60;;;22.30;32.80;;;;;;5089615;28;20063;-74
2021/03/13 11:45:53;;;;;;;4.00;1.25;;;22.20;32.70;;;;;;5089115;28;20047;-73
2021/03/13 11:48:18;;;;;;;5.28;0.80;;;22.30;32.80;;;;;;5090566;28;20051;-73
2021/03/13 11:50:53;;;;;;;1.23;0.47;;;22.10;32.80;;;;;;5076161;28;20070;-74
2021/03/13 11:53:25;;;;;;;1.27;0.33;;;22.20;32.90;;;;;;5095870;28;20055;-74
2021/03/13 11:55:50;;;;;;;1.52;0.57;;;22.30;33.00;;;;;;5080636;28;20282;-73
2021/03/13 11:58:16;;;;;;;1.25;0.63;;;22.40;32.80;;;;;;5091127;28;20050;-73
2021/03/13 12:00:42;;;;;;;2.47;1.13;;;22.50;32.70;;;;;;5091901;28;20134;-74
2021/03/13 12:03:07;;;;;;;5.55;1.00;;;22.60;32.50;;;;;;5091329;28;20550;-74
2021/03/13 12:05:33;;;;;;;2.75;0.77;;;22.60;32.10;;;;;;5058208;28;20040;-74
2021/03/13 12:07:59;;;;;;;6.97;1.45;;;22.60;32.30;;;;;;5073893;28;20051;-74
2021/03/13 12:10:38;;;;;;;3.55;0.73;;;22.60;31.60;;;;;;5090313;28;20040;-74
2021/03/13 12:13:03;;;;;;;4.35;1.25;;;22.60;31.70;;;;;;5093954;28;20503;-74
2021/03/13 12:15:29;;;;;;;3.10;0.82;;;22.70;31.80;;;;;;5092708;28;20040;-74
2021/03/13 12:17:55;;;;;;;1.52;0.77;;;22.80;31.60;;;;;;5090690;28;20044;-74
2021/03/13 12:20:20;;;;;;;0.60;0.30;;;22.70;31.60;;;;;;5058154;28;20032;-74
2021/03/13 12:22:46;;;;;;;4.63;0.68;;;22.80;32.20;;;;;;5090685;28;20032;-74
2021/03/13 12:25:12;;;;;;;4.78;0.73;;;22.80;32.80;;;;;;5057414;28;20040;-74
2021/03/13 12:27:40;;;;;;;1.27;0.50;;;22.70;32.70;;;;;;5073432;28;20044;-74
2021/03/13 12:30:11;;;;;;;2.10;0.75;;;22.60;33.00;;;;;;5090862;28;20020;-74
2021/03/13 12:32:38;;;;;;;3.75;0.70;;;22.60;33.80;;;;;;5092857;28;20024;-74
2021/03/13 12:35:04;;;;;;;4.80;1.40;;;22.50;33.70;;;;;;5089527;28;20527;-74
2021/03/13 12:37:30;;;;;;;0.38;0.32;;;22.40;33.40;;;;;;5090104;28;20040;-74
2021/03/13 12:39:56;;;;;;;5.95;1.15;;;22.40;33.40;;;;;;5093239;28;20395;-74
2021/03/13 12:42:22;;;;;;;5.20;1.17;;;22.40;33.40;;;;;;5057301;28;20523;-74
2021/03/13 12:44:48;;;;;;;3.75;0.65;;;22.40;33.80;;;;;;5091442;28;20024;-74
2021/03/13 12:47:13;;;;;;;4.63;0.98;;;22.40;34.00;;;;;;5091756;28;20442;-75
2021/03/13 12:49:39;;;;;;;3.17;0.63;;;22.30;33.90;;;;;;5090231;28;20103;-74
2021/03/13 12:52:05;;;;;;;2.15;0.60;;;22.30;34.00;;;;;;5092512;28;20023;-74
2021/03/13 12:54:30;;;;;;;1.85;0.68;;;22.30;33.80;;;;;;5093295;28;20093;-74
2021/03/13 12:56:56;;;;;;;4.55;0.63;;;22.30;34.50;;;;;;5091991;28;20036;-74
2021/03/13 12:59:22;;;;;;;4.25;1.10;;;22.20;33.70;;;;;;5090528;28;20051;-74
2021/03/13 13:01:47;;;;;;;2.28;0.57;;;22.30;33.60;;;;;;5092462;28;20441;-74
2021/03/13 13:04:13;;;;;;;2.50;0.68;;;22.30;34.00;;;;;;5090873;28;20047;-73